sensor_id;sensor_type;location;lat;lon;timestamp;P1;durP1;ratioP1;P2;durP2;ratioP2
60831;SDS011;46665;51.558;-0.448;2022-11-14T00:01:35;9.95;;;5.32;;
60831;SDS011;46665;51.558;-0.448;2022-11-14T00:04:19;14.50;;;7.07;;
60831;SDS011;46665;51.558;-0.448;2022-11-14T00:07:03;7.05;;;5.45;;
60831;SDS011;46665;51.558;-0.448;2022-11-14T00:09:47;12.70;;;5.85;;
60831;SDS011;46665;51.558;-0.448;2022-11-14T00:12:31;9.90;;;6.35;;
60831;SDS011;46665;51.558;-0.448;2022-11-14T00:15:15;8.95;;;5.95;;
60831;SDS011;46665;51.558;-0.448;2022-11-14T00:18:00;14.05;;;6.93;;
60831;SDS011;46665;51.558;-0.448;2022-11-14T00:20:46;8.32;;;5.80;;
60831;SDS011;46665;51.558;-0.448;2022-11-14T00:23:31;16.10;;;6.32;;
60831;SDS011;46665;51.558;-0.448;2022-11-14T00:26:15;14.18;;;7.03;;
60831;SDS011;46665;51.558;-0.448;2022-11-14T00:28:59;17.42;;;7.18;;
60831;SDS011;46665;51.558;-0.448;2022-11-14T00:31:42;12.93;;;6.65;;
60831;SDS011;46665;51.558;-0.448;2022-11-14T00:34:26;14.13;;;7.70;;
60831;SDS011;46665;51.558;-0.448;2022-11-14T00:37:10;8.70;;;5.55;;
60831;SDS011;46665;51.558;-0.448;2022-11-14T00:39:54;9.07;;;5.95;;
60831;SDS011;46665;51.558;-0.448;2022-11-14T00:42:38;13.20;;;7.38;;
60831;SDS011;46665;51.558;-0.448;2022-11-14T00:45:22;27.23;;;8.02;;
60831;SDS011;46665;51.558;-0.448;2022-11-14T00:48:06;19.88;;;7.45;;
60831;SDS011;46665;51.558;-0.448;2022-11-14T00:50:50;16.75;;;7.32;;
60831;SDS011;46665;51.558;-0.448;2022-11-14T00:53:34;14.68;;;8.30;;
60831;SDS011;46665;51.558;-0.448;2022-11-14T00:56:18;17.15;;;7.47;;
60831;SDS011;46665;51.558;-0.448;2022-11-14T00:59:02;19.85;;;9.40;;
60831;SDS011;46665;51.558;-0.448;2022-11-14T01:01:46;11.13;;;5.35;;
60831;SDS011;46665;51.558;-0.448;2022-11-14T01:04:30;12.55;;;6.60;;
60831;SDS011;46665;51.558;-0.448;2022-11-14T01:07:14;13.07;;;7.32;;
60831;SDS011;46665;51.558;-0.448;2022-11-14T01:09:58;23.42;;;8.07;;
60831;SDS011;46665;51.558;-0.448;2022-11-14T01:12:42;19.17;;;8.10;;
60831;SDS011;46665;51.558;-0.448;2022-11-14T01:15:26;15.85;;;7.82;;
60831;SDS011;46665;51.558;-0.448;2022-11-14T01:18:11;16.30;;;7.45;;
60831;SDS011;46665;51.558;-0.448;2022-11-14T01:20:58;13.98;;;6.70;;
60831;SDS011;46665;51.558;-0.448;2022-11-14T01:23:42;14.00;;;6.85;;
60831;SDS011;46665;51.558;-0.448;2022-11-14T01:26:26;15.32;;;6.63;;
60831;SDS011;46665;51.558;-0.448;2022-11-14T01:29:11;13.68;;;6.82;;
60831;SDS011;46665;51.558;-0.448;2022-11-14T01:31:55;15.32;;;7.15;;
60831;SDS011;46665;51.558;-0.448;2022-11-14T01:34:39;11.00;;;7.22;;
60831;SDS011;46665;51.558;-0.448;2022-11-14T01:37:23;11.00;;;6.55;;
60831;SDS011;46665;51.558;-0.448;2022-11-14T01:40:07;15.82;;;7.20;;
60831;SDS011;46665;51.558;-0.448;2022-11-14T01:46:12;9.38;;;5.50;;
60831;SDS011;46665;51.558;-0.448;2022-11-14T01:52:19;10.43;;;6.45;;
60831;SDS011;46665;51.558;-0.448;2022-11-14T01:55:10;12.60;;;5.80;;
60831;SDS011;46665;51.558;-0.448;2022-11-14T01:57:54;17.13;;;7.10;;
60831;SDS011;46665;51.558;-0.448;2022-11-14T02:00:41;13.77;;;6.60;;
60831;SDS011;46665;51.558;-0.448;2022-11-14T02:03:26;9.02;;;5.70;;
60831;SDS011;46665;51.558;-0.448;2022-11-14T02:06:12;8.05;;;6.10;;
60831;SDS011;46665;51.558;-0.448;2022-11-14T02:09:01;7.85;;;5.90;;
60831;SDS011;46665;51.558;-0.448;2022-11-14T02:11:47;10.30;;;6.03;;
60831;SDS011;46665;51.558;-0.448;2022-11-14T02:14:32;13.77;;;6.75;;
60831;SDS011;46665;51.558;-0.448;2022-11-14T02:17:17;7.78;;;5.90;;
60831;SDS011;46665;51.558;-0.448;2022-11-14T02:22:46;12.30;;;7.18;;
60831;SDS011;46665;51.558;-0.448;2022-11-14T02:25:30;9.38;;;6.68;;
60831;SDS011;46665;51.558;-0.448;2022-11-14T02:28:14;7.40;;;5.40;;
60831;SDS011;46665;51.558;-0.448;2022-11-14T02:30:58;8.50;;;4.90;;
60831;SDS011;46665;51.558;-0.448;2022-11-14T02:33:42;9.77;;;5.50;;
60831;SDS011;46665;51.558;-0.448;2022-11-14T02:36:26;10.77;;;6.72;;
60831;SDS011;46665;51.558;-0.448;2022-11-14T02:39:10;13.48;;;5.43;;
60831;SDS011;46665;51.558;-0.448;2022-11-14T02:41:53;11.65;;;6.57;;
60831;SDS011;46665;51.558;-0.448;2022-11-14T02:44:38;14.90;;;6.20;;
60831;SDS011;46665;51.558;-0.448;2022-11-14T02:47:22;12.38;;;5.93;;
60831;SDS011;46665;51.558;-0.448;2022-11-14T02:50:07;12.25;;;5.57;;
60831;SDS011;46665;51.558;-0.448;2022-11-14T02:52:51;10.63;;;5.78;;
60831;SDS011;46665;51.558;-0.448;2022-11-14T02:55:37;26.52;;;7.75;;
60831;SDS011;46665;51.558;-0.448;2022-11-14T02:58:20;8.43;;;5.63;;
60831;SDS011;46665;51.558;-0.448;2022-11-14T03:01:04;9.75;;;6.28;;
60831;SDS011;46665;51.558;-0.448;2022-11-14T03:03:48;14.27;;;6.35;;
60831;SDS011;46665;51.558;-0.448;2022-11-14T03:06:32;18.15;;;6.95;;
60831;SDS011;46665;51.558;-0.448;2022-11-14T03:09:16;8.52;;;6.03;;
60831;SDS011;46665;51.558;-0.448;2022-11-14T03:12:00;12.35;;;6.22;;
60831;SDS011;46665;51.558;-0.448;2022-11-14T03:14:44;13.90;;;5.97;;
60831;SDS011;46665;51.558;-0.448;2022-11-14T03:17:32;11.57;;;6.70;;
60831;SDS011;46665;51.558;-0.448;2022-11-14T03:20:18;9.88;;;6.10;;
60831;SDS011;46665;51.558;-0.448;2022-11-14T03:23:02;12.25;;;7.47;;
60831;SDS011;46665;51.558;-0.448;2022-11-14T03:25:47;15.05;;;5.13;;
60831;SDS011;46665;51.558;-0.448;2022-11-14T03:28:31;15.93;;;7.47;;
60831;SDS011;46665;51.558;-0.448;2022-11-14T03:31:16;10.23;;;5.50;;
60831;SDS011;46665;51.558;-0.448;2022-11-14T03:33:59;10.15;;;6.65;;
60831;SDS011;46665;51.558;-0.448;2022-11-14T03:36:43;11.50;;;6.80;;
60831;SDS011;46665;51.558;-0.448;2022-11-14T03:39:27;11.38;;;6.53;;
60831;SDS011;46665;51.558;-0.448;2022-11-14T03:42:11;15.40;;;7.55;;
60831;SDS011;46665;51.558;-0.448;2022-11-14T03:44:55;8.82;;;6.10;;
60831;SDS011;46665;51.558;-0.448;2022-11-14T03:47:40;11.25;;;6.35;;
60831;SDS011;46665;51.558;-0.448;2022-11-14T03:50:23;28.20;;;6.80;;
60831;SDS011;46665;51.558;-0.448;2022-11-14T03:53:08;10.70;;;6.13;;
60831;SDS011;46665;51.558;-0.448;2022-11-14T03:55:53;9.68;;;7.05;;
60831;SDS011;46665;51.558;-0.448;2022-11-14T03:58:38;24.33;;;7.38;;
60831;SDS011;46665;51.558;-0.448;2022-11-14T04:01:22;12.35;;;6.63;;
60831;SDS011;46665;51.558;-0.448;2022-11-14T04:04:06;13.70;;;6.28;;
60831;SDS011;46665;51.558;-0.448;2022-11-14T04:06:50;8.95;;;6.45;;
60831;SDS011;46665;51.558;-0.448;2022-11-14T04:09:34;9.20;;;6.68;;
60831;SDS011;46665;51.558;-0.448;2022-11-14T04:12:18;11.38;;;5.95;;
60831;SDS011;46665;51.558;-0.448;2022-11-14T04:15:02;10.93;;;6.00;;
60831;SDS011;46665;51.558;-0.448;2022-11-14T04:17:46;8.10;;;5.88;;
60831;SDS011;46665;51.558;-0.448;2022-11-14T04:20:30;8.63;;;5.20;;
60831;SDS011;46665;51.558;-0.448;2022-11-14T04:23:14;8.48;;;5.63;;
60831;SDS011;46665;51.558;-0.448;2022-11-14T04:25:58;10.27;;;6.32;;
60831;SDS011;46665;51.558;-0.448;2022-11-14T04:28:42;10.38;;;6.47;;
60831;SDS011;46665;51.558;-0.448;2022-11-14T04:31:26;12.88;;;6.20;;
60831;SDS011;46665;51.558;-0.448;2022-11-14T04:34:10;17.65;;;6.47;;
60831;SDS011;46665;51.558;-0.448;2022-11-14T04:36:54;10.52;;;6.65;;
60831;SDS011;46665;51.558;-0.448;2022-11-14T04:39:38;13.82;;;6.30;;
60831;SDS011;46665;51.558;-0.448;2022-11-14T04:42:23;8.45;;;6.03;;
60831;SDS011;46665;51.558;-0.448;2022-11-14T04:45:08;7.95;;;5.63;;
60831;SDS011;46665;51.558;-0.448;2022-11-14T04:47:52;10.82;;;7.18;;
60831;SDS011;46665;51.558;-0.448;2022-11-14T04:50:37;11.00;;;6.80;;
60831;SDS011;46665;51.558;-0.448;2022-11-14T04:53:21;10.38;;;6.07;;
60831;SDS011;46665;51.558;-0.448;2022-11-14T04:56:05;13.38;;;7.20;;
60831;SDS011;46665;51.558;-0.448;2022-11-14T04:58:50;8.55;;;6.28;;
60831;SDS011;46665;51.558;-0.448;2022-11-14T05:01:33;12.57;;;6.47;;
60831;SDS011;46665;51.558;-0.448;2022-11-14T05:04:17;10.93;;;5.80;;
60831;SDS011;46665;51.558;-0.448;2022-11-14T05:07:02;12.73;;;5.32;;
60831;SDS011;46665;51.558;-0.448;2022-11-14T05:09:46;7.68;;;6.00;;
60831;SDS011;46665;51.558;-0.448;2022-11-14T05:12:30;8.77;;;5.78;;
60831;SDS011;46665;51.558;-0.448;2022-11-14T05:15:15;10.18;;;5.95;;
60831;SDS011;46665;51.558;-0.448;2022-11-14T05:17:59;9.18;;;4.57;;
60831;SDS011;46665;51.558;-0.448;2022-11-14T05:20:43;12.98;;;6.88;;
60831;SDS011;46665;51.558;-0.448;2022-11-14T05:23:28;11.52;;;6.28;;
60831;SDS011;46665;51.558;-0.448;2022-11-14T05:26:13;7.57;;;5.93;;
60831;SDS011;46665;51.558;-0.448;2022-11-14T05:28:59;10.65;;;6.28;;
60831;SDS011;46665;51.558;-0.448;2022-11-14T05:31:43;8.85;;;5.95;;
60831;SDS011;46665;51.558;-0.448;2022-11-14T05:34:27;14.25;;;7.68;;
60831;SDS011;46665;51.558;-0.448;2022-11-14T05:37:11;16.20;;;6.80;;
60831;SDS011;46665;51.558;-0.448;2022-11-14T05:39:55;16.52;;;6.18;;
60831;SDS011;46665;51.558;-0.448;2022-11-14T05:42:39;18.95;;;6.50;;
60831;SDS011;46665;51.558;-0.448;2022-11-14T05:45:23;9.25;;;5.75;;
60831;SDS011;46665;51.558;-0.448;2022-11-14T05:48:07;11.52;;;6.35;;
60831;SDS011;46665;51.558;-0.448;2022-11-14T05:50:58;11.50;;;7.15;;
60831;SDS011;46665;51.558;-0.448;2022-11-14T05:53:43;8.23;;;5.22;;
60831;SDS011;46665;51.558;-0.448;2022-11-14T05:56:27;11.30;;;5.97;;
60831;SDS011;46665;51.558;-0.448;2022-11-14T05:59:11;10.82;;;5.25;;
60831;SDS011;46665;51.558;-0.448;2022-11-14T06:01:55;18.75;;;6.15;;
60831;SDS011;46665;51.558;-0.448;2022-11-14T06:04:39;13.20;;;5.80;;
60831;SDS011;46665;51.558;-0.448;2022-11-14T06:07:23;8.63;;;5.88;;
60831;SDS011;46665;51.558;-0.448;2022-11-14T06:10:07;11.18;;;5.05;;
60831;SDS011;46665;51.558;-0.448;2022-11-14T06:12:52;8.55;;;5.70;;
60831;SDS011;46665;51.558;-0.448;2022-11-14T06:15:36;8.38;;;4.95;;
60831;SDS011;46665;51.558;-0.448;2022-11-14T06:18:20;11.32;;;5.40;;
60831;SDS011;46665;51.558;-0.448;2022-11-14T06:21:14;9.38;;;5.68;;
60831;SDS011;46665;51.558;-0.448;2022-11-14T06:24:00;14.57;;;5.45;;
60831;SDS011;46665;51.558;-0.448;2022-11-14T06:26:44;10.00;;;5.15;;
60831;SDS011;46665;51.558;-0.448;2022-11-14T06:29:28;11.30;;;5.15;;
60831;SDS011;46665;51.558;-0.448;2022-11-14T06:32:12;13.32;;;5.70;;
60831;SDS011;46665;51.558;-0.448;2022-11-14T06:34:55;11.45;;;5.85;;
60831;SDS011;46665;51.558;-0.448;2022-11-14T06:37:39;10.45;;;5.97;;
60831;SDS011;46665;51.558;-0.448;2022-11-14T06:40:23;10.77;;;5.28;;
60831;SDS011;46665;51.558;-0.448;2022-11-14T06:43:07;6.05;;;4.38;;
60831;SDS011;46665;51.558;-0.448;2022-11-14T06:45:54;7.20;;;4.05;;
60831;SDS011;46665;51.558;-0.448;2022-11-14T06:48:38;14.70;;;5.53;;
60831;SDS011;46665;51.558;-0.448;2022-11-14T06:51:23;11.13;;;3.67;;
60831;SDS011;46665;51.558;-0.448;2022-11-14T06:54:09;7.07;;;3.42;;
60831;SDS011;46665;51.558;-0.448;2022-11-14T06:56:55;13.07;;;4.05;;
60831;SDS011;46665;51.558;-0.448;2022-11-14T06:59:38;6.30;;;4.35;;
60831;SDS011;46665;51.558;-0.448;2022-11-14T07:02:22;6.75;;;3.42;;
60831;SDS011;46665;51.558;-0.448;2022-11-14T07:05:06;13.02;;;3.80;;
60831;SDS011;46665;51.558;-0.448;2022-11-14T07:07:50;5.88;;;3.00;;
60831;SDS011;46665;51.558;-0.448;2022-11-14T07:10:34;6.40;;;3.60;;
60831;SDS011;46665;51.558;-0.448;2022-11-14T07:13:18;3.83;;;3.42;;
60831;SDS011;46665;51.558;-0.448;2022-11-14T07:16:02;7.45;;;3.33;;
60831;SDS011;46665;51.558;-0.448;2022-11-14T07:18:47;8.40;;;3.55;;
60831;SDS011;46665;51.558;-0.448;2022-11-14T07:21:32;3.20;;;2.90;;
60831;SDS011;46665;51.558;-0.448;2022-11-14T07:24:17;5.38;;;2.97;;
60831;SDS011;46665;51.558;-0.448;2022-11-14T07:27:01;4.18;;;3.00;;
60831;SDS011;46665;51.558;-0.448;2022-11-14T07:29:45;7.82;;;3.22;;
60831;SDS011;46665;51.558;-0.448;2022-11-14T07:32:29;6.38;;;3.58;;
60831;SDS011;46665;51.558;-0.448;2022-11-14T07:35:13;5.95;;;3.92;;
60831;SDS011;46665;51.558;-0.448;2022-11-14T07:38:03;6.65;;;3.15;;
60831;SDS011;46665;51.558;-0.448;2022-11-14T07:40:58;6.05;;;3.00;;
60831;SDS011;46665;51.558;-0.448;2022-11-14T07:43:44;4.53;;;2.75;;
60831;SDS011;46665;51.558;-0.448;2022-11-14T07:46:29;10.00;;;3.92;;
60831;SDS011;46665;51.558;-0.448;2022-11-14T07:49:13;3.80;;;3.03;;
60831;SDS011;46665;51.558;-0.448;2022-11-14T07:51:57;11.38;;;4.20;;
60831;SDS011;46665;51.558;-0.448;2022-11-14T07:54:41;5.43;;;3.42;;
60831;SDS011;46665;51.558;-0.448;2022-11-14T07:57:25;12.02;;;4.68;;
60831;SDS011;46665;51.558;-0.448;2022-11-14T08:00:09;2.90;;;2.55;;
60831;SDS011;46665;51.558;-0.448;2022-11-14T08:02:53;4.05;;;2.13;;
60831;SDS011;46665;51.558;-0.448;2022-11-14T08:05:38;6.07;;;3.60;;
60831;SDS011;46665;51.558;-0.448;2022-11-14T08:08:22;5.70;;;3.42;;
60831;SDS011;46665;51.558;-0.448;2022-11-14T08:11:06;4.32;;;3.10;;
60831;SDS011;46665;51.558;-0.448;2022-11-14T08:13:50;6.13;;;2.63;;
60831;SDS011;46665;51.558;-0.448;2022-11-14T08:16:35;10.65;;;2.67;;
60831;SDS011;46665;51.558;-0.448;2022-11-14T08:19:18;5.57;;;2.55;;
60831;SDS011;46665;51.558;-0.448;2022-11-14T08:22:02;4.18;;;2.25;;
60831;SDS011;46665;51.558;-0.448;2022-11-14T08:24:46;4.95;;;2.70;;
60831;SDS011;46665;51.558;-0.448;2022-11-14T08:27:30;4.75;;;3.13;;
60831;SDS011;46665;51.558;-0.448;2022-11-14T08:30:14;3.60;;;2.60;;
60831;SDS011;46665;51.558;-0.448;2022-11-14T08:33:02;4.80;;;3.08;;
60831;SDS011;46665;51.558;-0.448;2022-11-14T08:35:47;9.10;;;3.90;;
60831;SDS011;46665;51.558;-0.448;2022-11-14T08:38:31;7.30;;;2.75;;
60831;SDS011;46665;51.558;-0.448;2022-11-14T08:41:17;4.88;;;2.70;;
60831;SDS011;46665;51.558;-0.448;2022-11-14T08:44:01;3.75;;;2.75;;
60831;SDS011;46665;51.558;-0.448;2022-11-14T08:46:45;3.25;;;2.42;;
60831;SDS011;46665;51.558;-0.448;2022-11-14T08:49:29;5.85;;;2.58;;
60831;SDS011;46665;51.558;-0.448;2022-11-14T08:52:13;4.45;;;2.58;;
60831;SDS011;46665;51.558;-0.448;2022-11-14T08:54:57;7.68;;;2.63;;
60831;SDS011;46665;51.558;-0.448;2022-11-14T08:57:41;5.35;;;2.83;;
60831;SDS011;46665;51.558;-0.448;2022-11-14T09:00:25;5.30;;;2.97;;
60831;SDS011;46665;51.558;-0.448;2022-11-14T09:03:09;6.60;;;3.05;;
60831;SDS011;46665;51.558;-0.448;2022-11-14T09:05:58;4.00;;;2.70;;
60831;SDS011;46665;51.558;-0.448;2022-11-14T09:08:43;5.82;;;3.10;;
60831;SDS011;46665;51.558;-0.448;2022-11-14T09:11:27;5.70;;;3.00;;
60831;SDS011;46665;51.558;-0.448;2022-11-14T09:14:11;4.25;;;2.75;;
60831;SDS011;46665;51.558;-0.448;2022-11-14T09:16:55;9.65;;;3.30;;
60831;SDS011;46665;51.558;-0.448;2022-11-14T09:19:39;2.58;;;2.38;;
60831;SDS011;46665;51.558;-0.448;2022-11-14T09:22:23;3.95;;;3.10;;
60831;SDS011;46665;51.558;-0.448;2022-11-14T09:25:07;4.05;;;3.00;;
60831;SDS011;46665;51.558;-0.448;2022-11-14T09:27:51;6.45;;;2.65;;
60831;SDS011;46665;51.558;-0.448;2022-11-14T09:30:36;3.28;;;2.53;;
60831;SDS011;46665;51.558;-0.448;2022-11-14T09:33:20;4.85;;;2.92;;
60831;SDS011;46665;51.558;-0.448;2022-11-14T09:36:05;4.70;;;2.50;;
60831;SDS011;46665;51.558;-0.448;2022-11-14T09:38:50;9.07;;;3.10;;
60831;SDS011;46665;51.558;-0.448;2022-11-14T09:44:57;7.22;;;3.75;;
60831;SDS011;46665;51.558;-0.448;2022-11-14T09:47:46;7.25;;;4.00;;
60831;SDS011;46665;51.558;-0.448;2022-11-14T09:50:33;5.57;;;2.45;;
60831;SDS011;46665;51.558;-0.448;2022-11-14T09:53:22;9.77;;;3.65;;
60831;SDS011;46665;51.558;-0.448;2022-11-14T09:56:15;5.75;;;3.25;;
60831;SDS011;46665;51.558;-0.448;2022-11-14T09:59:11;7.05;;;2.20;;
60831;SDS011;46665;51.558;-0.448;2022-11-14T10:02:04;7.03;;;3.55;;
60831;SDS011;46665;51.558;-0.448;2022-11-14T10:13:52;4.75;;;3.15;;
60831;SDS011;46665;51.558;-0.448;2022-11-14T10:26:14;10.88;;;4.88;;
60831;SDS011;46665;51.558;-0.448;2022-11-14T10:32:44;13.57;;;4.05;;
60831;SDS011;46665;51.558;-0.448;2022-11-14T10:39:03;11.30;;;5.07;;
60831;SDS011;46665;51.558;-0.448;2022-11-14T10:42:31;10.23;;;4.80;;
60831;SDS011;46665;51.558;-0.448;2022-11-14T10:46:04;10.63;;;4.85;;
60831;SDS011;46665;51.558;-0.448;2022-11-14T10:54:21;9.93;;;5.53;;
60831;SDS011;46665;51.558;-0.448;2022-11-14T10:57:15;14.32;;;5.45;;
60831;SDS011;46665;51.558;-0.448;2022-11-14T11:00:01;11.50;;;4.43;;
60831;SDS011;46665;51.558;-0.448;2022-11-14T11:02:50;11.05;;;5.60;;
60831;SDS011;46665;51.558;-0.448;2022-11-14T11:05:43;9.15;;;5.97;;
60831;SDS011;46665;51.558;-0.448;2022-11-14T11:08:42;14.68;;;6.43;;
60831;SDS011;46665;51.558;-0.448;2022-11-14T11:11:55;10.05;;;5.13;;
60831;SDS011;46665;51.558;-0.448;2022-11-14T11:14:41;14.73;;;6.30;;
60831;SDS011;46665;51.558;-0.448;2022-11-14T11:17:30;6.38;;;4.60;;
60831;SDS011;46665;51.558;-0.448;2022-11-14T11:20:25;13.05;;;6.10;;
60831;SDS011;46665;51.558;-0.448;2022-11-14T11:23:21;13.48;;;5.57;;
60831;SDS011;46665;51.558;-0.448;2022-11-14T11:26:16;14.60;;;5.95;;
60831;SDS011;46665;51.558;-0.448;2022-11-14T11:29:16;21.42;;;5.72;;
60831;SDS011;46665;51.558;-0.448;2022-11-14T11:32:02;12.73;;;6.25;;
60831;SDS011;46665;51.558;-0.448;2022-11-14T11:34:47;10.05;;;4.70;;
60831;SDS011;46665;51.558;-0.448;2022-11-14T11:37:35;7.30;;;4.93;;
60831;SDS011;46665;51.558;-0.448;2022-11-14T11:40:25;11.25;;;5.47;;
60831;SDS011;46665;51.558;-0.448;2022-11-14T11:43:25;11.15;;;6.47;;
60831;SDS011;46665;51.558;-0.448;2022-11-14T11:46:19;9.35;;;5.38;;
60831;SDS011;46665;51.558;-0.448;2022-11-14T11:49:16;12.15;;;6.75;;
60831;SDS011;46665;51.558;-0.448;2022-11-14T11:52:11;22.33;;;6.93;;
60831;SDS011;46665;51.558;-0.448;2022-11-14T11:58:27;20.75;;;6.55;;
60831;SDS011;46665;51.558;-0.448;2022-11-14T12:01:15;10.60;;;6.35;;
60831;SDS011;46665;51.558;-0.448;2022-11-14T12:03:59;8.93;;;6.75;;
60831;SDS011;46665;51.558;-0.448;2022-11-14T12:06:45;14.88;;;6.93;;
60831;SDS011;46665;51.558;-0.448;2022-11-14T12:09:45;10.98;;;6.20;;
60831;SDS011;46665;51.558;-0.448;2022-11-14T12:12:48;13.32;;;7.10;;
60831;SDS011;46665;51.558;-0.448;2022-11-14T12:22:03;15.68;;;6.43;;
60831;SDS011;46665;51.558;-0.448;2022-11-14T12:28:14;18.10;;;6.57;;
60831;SDS011;46665;51.558;-0.448;2022-11-14T12:31:04;21.60;;;7.60;;
60831;SDS011;46665;51.558;-0.448;2022-11-14T12:33:58;24.25;;;8.88;;
60831;SDS011;46665;51.558;-0.448;2022-11-14T12:36:45;10.20;;;6.50;;
60831;SDS011;46665;51.558;-0.448;2022-11-14T12:39:29;14.70;;;8.23;;
60831;SDS011;46665;51.558;-0.448;2022-11-14T12:42:17;13.15;;;5.65;;
60831;SDS011;46665;51.558;-0.448;2022-11-14T12:45:03;12.95;;;6.78;;
60831;SDS011;46665;51.558;-0.448;2022-11-14T12:58:01;14.60;;;7.70;;
60831;SDS011;46665;51.558;-0.448;2022-11-14T13:09:20;15.90;;;7.20;;
60831;SDS011;46665;51.558;-0.448;2022-11-14T13:12:25;7.97;;;5.57;;
60831;SDS011;46665;51.558;-0.448;2022-11-14T13:15:35;10.15;;;6.82;;
60831;SDS011;46665;51.558;-0.448;2022-11-14T13:18:53;12.60;;;6.47;;
60831;SDS011;46665;51.558;-0.448;2022-11-14T13:27:45;16.48;;;7.32;;
60831;SDS011;46665;51.558;-0.448;2022-11-14T13:33:54;15.93;;;6.78;;
60831;SDS011;46665;51.558;-0.448;2022-11-14T13:36:44;11.32;;;6.53;;
60831;SDS011;46665;51.558;-0.448;2022-11-14T13:39:44;11.52;;;6.53;;
60831;SDS011;46665;51.558;-0.448;2022-11-14T13:42:47;11.10;;;7.20;;
60831;SDS011;46665;51.558;-0.448;2022-11-14T13:46:00;14.10;;;6.72;;
60831;SDS011;46665;51.558;-0.448;2022-11-14T13:51:56;12.57;;;5.80;;
60831;SDS011;46665;51.558;-0.448;2022-11-14T13:54:48;13.55;;;6.57;;
60831;SDS011;46665;51.558;-0.448;2022-11-14T13:57:48;13.63;;;7.35;;
60831;SDS011;46665;51.558;-0.448;2022-11-14T14:01:04;13.68;;;6.13;;
60831;SDS011;46665;51.558;-0.448;2022-11-14T14:04:01;13.65;;;6.63;;
60831;SDS011;46665;51.558;-0.448;2022-11-14T14:07:14;11.65;;;6.55;;
60831;SDS011;46665;51.558;-0.448;2022-11-14T14:10:03;17.20;;;7.65;;
60831;SDS011;46665;51.558;-0.448;2022-11-14T14:28:17;16.00;;;7.80;;
60831;SDS011;46665;51.558;-0.448;2022-11-14T14:31:22;15.77;;;6.57;;
60831;SDS011;46665;51.558;-0.448;2022-11-14T14:34:23;11.80;;;6.43;;
60831;SDS011;46665;51.558;-0.448;2022-11-14T14:37:28;12.43;;;6.93;;
60831;SDS011;46665;51.558;-0.448;2022-11-14T14:40:22;14.73;;;7.68;;
60831;SDS011;46665;51.558;-0.448;2022-11-14T14:43:12;15.52;;;6.15;;
60831;SDS011;46665;51.558;-0.448;2022-11-14T14:46:24;12.07;;;5.78;;
60831;SDS011;46665;51.558;-0.448;2022-11-14T14:49:16;14.40;;;7.43;;
60831;SDS011;46665;51.558;-0.448;2022-11-14T14:55:21;16.25;;;7.25;;
60831;SDS011;46665;51.558;-0.448;2022-11-14T14:58:14;11.68;;;6.70;;
60831;SDS011;46665;51.558;-0.448;2022-11-14T15:01:11;12.50;;;7.60;;
60831;SDS011;46665;51.558;-0.448;2022-11-14T15:04:04;15.63;;;8.10;;
60831;SDS011;46665;51.558;-0.448;2022-11-14T15:06:51;19.77;;;8.15;;
60831;SDS011;46665;51.558;-0.448;2022-11-14T15:09:35;12.32;;;7.07;;
60831;SDS011;46665;51.558;-0.448;2022-11-14T15:12:20;16.75;;;7.47;;
60831;SDS011;46665;51.558;-0.448;2022-11-14T15:15:07;10.70;;;6.47;;
60831;SDS011;46665;51.558;-0.448;2022-11-14T15:17:55;11.65;;;7.68;;
60831;SDS011;46665;51.558;-0.448;2022-11-14T15:20:42;11.38;;;6.25;;
60831;SDS011;46665;51.558;-0.448;2022-11-14T15:23:26;14.35;;;8.32;;
60831;SDS011;46665;51.558;-0.448;2022-11-14T15:26:16;19.85;;;7.78;;
60831;SDS011;46665;51.558;-0.448;2022-11-14T15:29:20;14.10;;;8.10;;
60831;SDS011;46665;51.558;-0.448;2022-11-14T15:32:05;15.20;;;8.25;;
60831;SDS011;46665;51.558;-0.448;2022-11-14T15:44:13;12.98;;;7.53;;
60831;SDS011;46665;51.558;-0.448;2022-11-14T15:47:17;16.02;;;7.00;;
60831;SDS011;46665;51.558;-0.448;2022-11-14T15:52:57;9.43;;;5.65;;
60831;SDS011;46665;51.558;-0.448;2022-11-14T15:55:49;14.50;;;7.20;;
60831;SDS011;46665;51.558;-0.448;2022-11-14T15:58:34;9.77;;;6.00;;
60831;SDS011;46665;51.558;-0.448;2022-11-14T16:01:20;12.98;;;7.15;;
60831;SDS011;46665;51.558;-0.448;2022-11-14T16:04:07;10.88;;;7.32;;
60831;SDS011;46665;51.558;-0.448;2022-11-14T16:06:56;15.35;;;7.70;;
60831;SDS011;46665;51.558;-0.448;2022-11-14T16:09:40;11.77;;;6.90;;
60831;SDS011;46665;51.558;-0.448;2022-11-14T16:12:24;10.00;;;6.53;;
60831;SDS011;46665;51.558;-0.448;2022-11-14T16:15:08;12.38;;;6.95;;
60831;SDS011;46665;51.558;-0.448;2022-11-14T16:17:53;6.47;;;5.85;;
60831;SDS011;46665;51.558;-0.448;2022-11-14T16:20:37;15.38;;;6.57;;
60831;SDS011;46665;51.558;-0.448;2022-11-14T16:23:22;12.73;;;6.70;;
60831;SDS011;46665;51.558;-0.448;2022-11-14T16:26:06;14.18;;;6.80;;
60831;SDS011;46665;51.558;-0.448;2022-11-14T16:28:50;17.83;;;6.72;;
60831;SDS011;46665;51.558;-0.448;2022-11-14T16:31:34;18.42;;;6.72;;
60831;SDS011;46665;51.558;-0.448;2022-11-14T16:34:20;17.70;;;6.72;;
60831;SDS011;46665;51.558;-0.448;2022-11-14T16:39:53;17.95;;;8.13;;
60831;SDS011;46665;51.558;-0.448;2022-11-14T16:42:37;10.90;;;6.00;;
60831;SDS011;46665;51.558;-0.448;2022-11-14T16:45:21;12.50;;;6.00;;
60831;SDS011;46665;51.558;-0.448;2022-11-14T16:48:06;13.75;;;6.47;;
60831;SDS011;46665;51.558;-0.448;2022-11-14T16:50:50;15.55;;;6.90;;
60831;SDS011;46665;51.558;-0.448;2022-11-14T16:53:34;11.77;;;6.68;;
60831;SDS011;46665;51.558;-0.448;2022-11-14T16:56:18;12.35;;;6.50;;
60831;SDS011;46665;51.558;-0.448;2022-11-14T16:59:02;15.45;;;6.60;;
60831;SDS011;46665;51.558;-0.448;2022-11-14T17:01:46;14.75;;;7.45;;
60831;SDS011;46665;51.558;-0.448;2022-11-14T17:04:31;18.48;;;7.78;;
60831;SDS011;46665;51.558;-0.448;2022-11-14T17:07:15;10.85;;;7.00;;
60831;SDS011;46665;51.558;-0.448;2022-11-14T17:10:00;10.70;;;6.88;;
60831;SDS011;46665;51.558;-0.448;2022-11-14T17:12:44;15.55;;;7.00;;
60831;SDS011;46665;51.558;-0.448;2022-11-14T17:15:28;15.85;;;7.63;;
60831;SDS011;46665;51.558;-0.448;2022-11-14T17:18:14;14.88;;;7.55;;
60831;SDS011;46665;51.558;-0.448;2022-11-14T17:21:02;15.45;;;7.82;;
60831;SDS011;46665;51.558;-0.448;2022-11-14T17:23:58;19.60;;;8.45;;
60831;SDS011;46665;51.558;-0.448;2022-11-14T17:26:44;16.48;;;8.55;;
60831;SDS011;46665;51.558;-0.448;2022-11-14T17:29:28;14.07;;;8.15;;
60831;SDS011;46665;51.558;-0.448;2022-11-14T17:32:12;12.30;;;7.18;;
60831;SDS011;46665;51.558;-0.448;2022-11-14T17:34:56;20.10;;;6.60;;
60831;SDS011;46665;51.558;-0.448;2022-11-14T17:37:40;15.35;;;7.03;;
60831;SDS011;46665;51.558;-0.448;2022-11-14T17:40:24;13.95;;;8.88;;
60831;SDS011;46665;51.558;-0.448;2022-11-14T17:43:08;11.98;;;7.22;;
60831;SDS011;46665;51.558;-0.448;2022-11-14T17:45:53;13.60;;;7.55;;
60831;SDS011;46665;51.558;-0.448;2022-11-14T17:48:38;13.87;;;7.37;;
60831;SDS011;46665;51.558;-0.448;2022-11-14T17:51:22;20.50;;;7.68;;
60831;SDS011;46665;51.558;-0.448;2022-11-14T17:54:08;6.43;;;5.63;;
60831;SDS011;46665;51.558;-0.448;2022-11-14T17:56:52;9.77;;;7.25;;
60831;SDS011;46665;51.558;-0.448;2022-11-14T17:59:38;13.88;;;7.43;;
60831;SDS011;46665;51.558;-0.448;2022-11-14T18:02:24;17.03;;;7.20;;
60831;SDS011;46665;51.558;-0.448;2022-11-14T18:05:08;14.75;;;8.73;;
60831;SDS011;46665;51.558;-0.448;2022-11-14T18:07:52;18.42;;;8.15;;
60831;SDS011;46665;51.558;-0.448;2022-11-14T18:10:36;18.02;;;6.90;;
60831;SDS011;46665;51.558;-0.448;2022-11-14T18:13:20;7.85;;;5.88;;
60831;SDS011;46665;51.558;-0.448;2022-11-14T18:16:05;12.10;;;7.55;;
60831;SDS011;46665;51.558;-0.448;2022-11-14T18:18:50;14.45;;;7.15;;
60831;SDS011;46665;51.558;-0.448;2022-11-14T18:21:35;12.30;;;7.75;;
60831;SDS011;46665;51.558;-0.448;2022-11-14T18:24:21;22.35;;;8.13;;